Time;durP1;ratioP1;P1;durP2;ratioP2;P2;SDS_P1;SDS_P2;PMS_P1;PMS_P2;Temp;Humidity;BMP_temperature;BMP_pressure;BME280_temperature;BME280_humidity;BME280_pressure;Samples;Min_cycle;Max_cycle;Signal;HPM_P1;HPM_P2
2023/03/30 00:00:23;;;;;;;24.02;4.00;;;;;;;;;;5050934;28;20037;-64
2023/03/30 00:02:52;;;;;;;25.48;3.92;;;;;;;;;;5049496;28;20025;-64
2023/03/30 00:05:19;;;;;;;32.10;5.00;;;;;;;;;;5050693;28;20033;-65
2023/03/30 00:07:45;;;;;;;20.55;4.15;;;;;;;;;;5050708;28;20029;-63
2023/03/30 00:10:13;;;;;;;34.65;4.78;;;;;;;;;;5050608;28;20650;-63
2023/03/30 00:12:39;;;;;;;31.17;5.50;;;;;;;;;;5050405;28;20362;-64
2023/03/30 00:15:08;;;;;;;33.65;3.83;;;;;;;;;;5054178;28;20119;-64
2023/03/30 00:17:35;;;;;;;19.90;4.05;;;;;;;;;;5054390;28;20350;-64
2023/03/30 00:20:03;;;;;;;20.45;4.40;;;;;;;;;;5053060;28;20375;-63
2023/03/30 00:22:30;;;;;;;28.73;4.55;;;;;;;;;;5054145;28;20025;-63
2023/03/30 00:24:56;;;;;;;35.08;4.85;;;;;;;;;;5054018;28;20025;-63
2023/03/30 00:27:22;;;;;;;28.55;4.68;;;;;;;;;;5054033;28;20021;-63
2023/03/30 00:29:48;;;;;;;21.02;4.07;;;;;;;;;;5054090;28;20052;-62
2023/03/30 00:32:14;;;;;;;28.27;3.97;;;;;;;;;;5054119;28;20061;-63
2023/03/30 00:34:40;;;;;;;22.58;3.63;;;;;;;;;;5052638;28;20041;-63
2023/03/30 00:37:06;;;;;;;25.80;7.32;;;;;;;;;;5053803;28;20021;-63
2023/03/30 00:39:32;;;;;;;29.60;4.85;;;;;;;;;;5053918;28;20032;-63
2023/03/30 00:41:58;;;;;;;29.95;4.43;;;;;;;;;;5053399;28;20186;-64
2023/03/30 00:44:43;;;;;;;28.60;5.03;;;;;;;;;;5054118;28;20451;-63
2023/03/30 00:47:09;;;;;;;19.60;5.10;;;;;;;;;;5053881;28;20021;-63
2023/03/30 00:49:35;;;;;;;19.65;3.25;;;;;;;;;;5052545;28;20037;-63
2023/03/30 00:52:02;;;;;;;39.72;5.70;;;;;;;;;;5053767;28;20024;-63
2023/03/30 00:54:28;;;;;;;25.98;4.75;;;;;;;;;;5053481;28;20033;-63
2023/03/30 00:56:54;;;;;;;27.60;5.57;;;;;;;;;;5053495;28;20029;-63
2023/03/30 00:59:20;;;;;;;33.92;5.20;;;;;;;;;;5053327;28;20039;-63
2023/03/30 01:01:48;;;;;;;23.05;5.20;;;;;;;;;;5053487;28;20027;-63
2023/03/30 01:04:19;;;;;;;31.65;6.53;;;;;;;;;;5053465;28;20029;-62
2023/03/30 01:06:46;;;;;;;37.88;5.28;;;;;;;;;;5052100;28;20147;-63
2023/03/30 01:09:14;;;;;;;29.70;4.22;;;;;;;;;;5053200;28;20029;-64
2023/03/30 01:11:40;;;;;;;42.00;5.63;;;;;;;;;;5051913;28;20063;-63
2023/03/30 01:14:07;;;;;;;33.03;4.43;;;;;;;;;;5053145;28;20489;-63
2023/03/30 01:16:39;;;;;;;31.02;5.10;;;;;;;;;;5053193;28;20322;-63
2023/03/30 01:19:05;;;;;;;;;;;;;;;;;;5053647;28;20025;-63
2023/03/30 01:21:47;;;;;;;32.85;4.32;;;;;;;;;;5052920;28;19912;-64
2023/03/30 01:24:19;;;;;;;37.88;5.88;;;;;;;;;;5036541;28;20041;-63
2023/03/30 01:26:45;;;;;;;23.73;4.45;;;;;;;;;;5032509;28;20032;-63
2023/03/30 01:29:19;;;;;;;50.40;5.30;;;;;;;;;;5033075;28;20025;-62
2023/03/30 01:32:04;;;;;;;26.83;5.07;;;;;;;;;;5032924;28;20021;-63
2023/03/30 01:34:30;;;;;;;41.13;5.82;;;;;;;;;;5032582;28;20482;-63
2023/03/30 01:36:58;;;;;;;37.17;5.70;;;;;;;;;;5032545;28;20071;-63
2023/03/30 01:39:24;;;;;;;27.83;5.40;;;;;;;;;;5032876;28;20140;-63
2023/03/30 01:42:03;;;;;;;44.97;7.45;;;;;;;;;;5049479;28;20101;-63
2023/03/30 01:44:36;;;;;;;41.30;6.60;;;;;;;;;;5052533;28;20044;-63
2023/03/30 01:47:09;;;;;;;38.53;7.00;;;;;;;;;;5052703;28;20025;-64
2023/03/30 01:49:35;;;;;;;47.63;6.07;;;;;;;;;;5052569;28;20029;-63
2023/03/30 01:52:01;;;;;;;34.00;6.38;;;;;;;;;;5052583;28;20036;-63
2023/03/30 01:54:38;;;;;;;50.30;7.85;;;;;;;;;;5052146;28;20037;-63
2023/03/30 01:57:08;;;;;;;39.40;6.28;;;;;;;;;;5051258;28;20028;-62
2023/03/30 01:59:45;;;;;;;35.97;5.57;;;;;;;;;;5052482;28;20048;-63
2023/03/30 02:02:13;;;;;;;37.03;5.10;;;;;;;;;;5052374;28;20052;-63
2023/03/30 02:04:40;;;;;;;45.28;7.15;;;;;;;;;;5052179;28;20458;-63
2023/03/30 02:07:13;;;;;;;38.88;6.57;;;;;;;;;;5051984;28;20060;-63
2023/03/30 02:09:40;;;;;;;45.72;8.98;;;;;;;;;;5052029;28;20021;-62
2023/03/30 02:12:07;;;;;;;36.50;7.35;;;;;;;;;;5052143;28;20029;-63
2023/03/30 02:14:34;;;;;;;38.95;6.85;;;;;;;;;;5050734;28;20043;-63
2023/03/30 02:17:04;;;;;;;37.75;5.80;;;;;;;;;;5051963;28;20021;-64
2023/03/30 02:19:30;;;;;;;36.67;7.45;;;;;;;;;;5052061;28;20031;-63
2023/03/30 02:21:57;;;;;;;41.78;7.50;;;;;;;;;;5051933;28;20377;-62
2023/03/30 02:24:27;;;;;;;39.88;6.63;;;;;;;;;;5052084;28;20044;-63
2023/03/30 02:26:53;;;;;;;45.33;5.32;;;;;;;;;;5051981;28;20052;-62
2023/03/30 02:29:20;;;;;;;43.03;6.00;;;;;;;;;;5051693;28;20135;-63
2023/03/30 02:31:48;;;;;;;53.33;8.55;;;;;;;;;;5050525;28;20037;-63
2023/03/30 02:34:23;;;;;;;42.10;6.57;;;;;;;;;;5051546;28;20081;-62
2023/03/30 02:36:55;;;;;;;49.38;7.38;;;;;;;;;;5050637;28;20603;-63
2023/03/30 02:39:21;;;;;;;49.00;8.32;;;;;;;;;;5051556;28;20442;-62
2023/03/30 02:41:59;;;;;;;50.42;8.45;;;;;;;;;;5051311;28;20083;-63
2023/03/30 02:44:36;;;;;;;49.75;6.45;;;;;;;;;;5051603;28;20013;-63
2023/03/30 02:47:06;;;;;;;39.78;5.63;;;;;;;;;;5050409;28;20025;-63
2023/03/30 02:49:51;;;;;;;50.92;6.47;;;;;;;;;;5051457;28;20108;-62
2023/03/30 02:52:36;;;;;;;45.55;6.32;;;;;;;;;;5051479;28;20028;-62
2023/03/30 02:55:21;;;;;;;50.20;8.50;;;;;;;;;;5051282;28;20043;-62
2023/03/30 02:57:47;;;;;;;53.60;7.55;;;;;;;;;;5051385;28;20505;-61
2023/03/30 03:00:17;;;;;;;58.78;6.95;;;;;;;;;;5051354;28;20021;-63
2023/03/30 03:02:47;;;;;;;51.60;7.15;;;;;;;;;;5051478;28;20025;-62
2023/03/30 03:05:15;;;;;;;59.85;7.47;;;;;;;;;;5049896;28;20031;-62
2023/03/30 03:07:43;;;;;;;61.75;8.13;;;;;;;;;;5051095;28;20487;-62
2023/03/30 03:10:10;;;;;;;49.33;6.57;;;;;;;;;;5051192;28;20111;-62
2023/03/30 03:12:36;;;;;;;32.97;6.15;;;;;;;;;;5051093;28;20021;-63
2023/03/30 03:15:04;;;;;;;40.85;6.82;;;;;;;;;;5051096;28;20433;-63
2023/03/30 03:17:33;;;;;;;60.15;7.95;;;;;;;;;;5051150;28;20024;-62
2023/03/30 03:20:09;;;;;;;58.65;6.55;;;;;;;;;;5051140;28;20033;-62
2023/03/30 03:22:35;;;;;;;71.97;7.95;;;;;;;;;;5050003;28;20021;-63
2023/03/30 03:25:01;;;;;;;58.65;8.15;;;;;;;;;;5051175;28;20036;-62
2023/03/30 03:27:27;;;;;;;67.32;8.57;;;;;;;;;;5051185;28;20025;-62
2023/03/30 03:29:53;;;;;;;56.67;8.57;;;;;;;;;;5051059;28;20029;-63
2023/03/30 03:32:19;;;;;;;42.65;7.13;;;;;;;;;;5050784;28;20025;-63
2023/03/30 03:34:46;;;;;;;45.35;6.65;;;;;;;;;;5050806;28;20036;-63
2023/03/30 03:37:12;;;;;;;46.92;7.60;;;;;;;;;;5049771;28;20027;-63
2023/03/30 03:39:38;;;;;;;43.92;7.43;;;;;;;;;;5051042;28;20436;-62
2023/03/30 03:42:05;;;;;;;45.15;5.65;;;;;;;;;;5050694;28;20045;-62
2023/03/30 03:44:31;;;;;;;56.75;6.60;;;;;;;;;;5050763;28;20355;-62
2023/03/30 03:46:57;;;;;;;60.10;8.38;;;;;;;;;;5049664;28;20021;-62
2023/03/30 03:49:24;;;;;;;69.68;9.05;;;;;;;;;;5052165;28;20424;-62
2023/03/30 03:51:50;;;;;;;56.80;7.97;;;;;;;;;;5054569;28;20644;-63
2023/03/30 03:54:16;;;;;;;48.67;6.90;;;;;;;;;;5053618;28;20033;-62
2023/03/30 03:56:42;;;;;;;56.35;7.32;;;;;;;;;;5054963;28;20032;-63
2023/03/30 03:59:09;;;;;;;47.05;7.47;;;;;;;;;;5054760;28;20029;-63
2023/03/30 04:01:35;;;;;;;44.30;7.78;;;;;;;;;;5054461;28;20071;-61
2023/03/30 04:04:01;;;;;;;54.83;7.72;;;;;;;;;;5054439;28;20056;-63
2023/03/30 04:06:27;;;;;;;73.00;8.40;;;;;;;;;;5054365;28;20066;-62
2023/03/30 04:08:53;;;;;;;74.18;8.85;;;;;;;;;;5054414;28;20021;-62
2023/03/30 04:11:20;;;;;;;84.55;10.70;;;;;;;;;;5053116;28;20017;-63
2023/03/30 04:13:48;;;;;;;56.53;8.07;;;;;;;;;;5054220;28;20064;-61
2023/03/30 04:16:14;;;;;;;52.38;7.07;;;;;;;;;;5054382;28;20064;-63
2023/03/30 04:18:40;;;;;;;66.55;8.32;;;;;;;;;;5054136;28;20027;-63
2023/03/30 04:21:11;;;;;;;63.72;8.73;;;;;;;;;;5054218;28;20021;-62
2023/03/30 04:23:38;;;;;;;58.08;8.40;;;;;;;;;;5054207;28;20029;-63
2023/03/30 04:26:06;;;;;;;61.67;8.35;;;;;;;;;;5052901;28;20381;-63
2023/03/30 04:28:33;;;;;;;30.00;5.60;;;;;;;;;;5053802;28;20036;-63
2023/03/30 04:31:01;;;;;;;44.25;7.85;;;;;;;;;;5054016;28;20074;-63
2023/03/30 04:33:27;;;;;;;80.03;9.68;;;;;;;;;;5054165;28;20031;-63
2023/03/30 04:35:53;;;;;;;61.92;8.85;;;;;;;;;;5053909;28;20109;-62
2023/03/30 04:38:22;;;;;;;63.13;6.82;;;;;;;;;;5053679;28;20027;-62
2023/03/30 04:40:49;;;;;;;57.20;7.88;;;;;;;;;;5053951;28;20041;-62
2023/03/30 04:43:18;;;;;;;41.35;5.85;;;;;;;;;;5052618;28;20445;-62
2023/03/30 04:45:55;;;;;;;64.82;8.25;;;;;;;;;;5053702;28;20033;-63
2023/03/30 04:48:22;;;;;;;67.95;8.48;;;;;;;;;;5053931;28;20383;-63
2023/03/30 04:50:48;;;;;;;64.03;8.80;;;;;;;;;;5053637;28;20100;-62
2023/03/30 04:53:15;;;;;;;54.33;7.57;;;;;;;;;;5053566;28;20028;-63
2023/03/30 04:55:42;;;;;;;82.38;8.27;;;;;;;;;;5053524;28;20025;-63
2023/03/30 04:58:11;;;;;;;57.47;7.35;;;;;;;;;;5053244;28;20032;-63
2023/03/30 05:00:37;;;;;;;71.30;7.78;;;;;;;;;;5051009;28;20025;-63
2023/03/30 05:03:04;;;;;;;66.50;9.20;;;;;;;;;;5053476;28;20027;-64
2023/03/30 05:05:30;;;;;;;62.28;8.32;;;;;;;;;;5053189;28;20025;-63
2023/03/30 05:07:56;;;;;;;63.28;7.28;;;;;;;;;;5053355;28;20553;-63
2023/03/30 05:10:22;;;;;;;82.38;9.68;;;;;;;;;;5053057;28;20017;-62
2023/03/30 05:12:48;;;;;;;64.00;7.03;;;;;;;;;;5047448;28;20035;-64
2023/03/30 05:15:15;;;;;;;66.57;9.45;;;;;;;;;;5060177;28;20503;-64
2023/03/30 05:17:41;;;;;;;69.82;8.18;;;;;;;;;;5073259;28;20028;-63
2023/03/30 05:20:08;;;;;;;57.50;8.15;;;;;;;;;;5050002;28;20051;-63
2023/03/30 05:22:35;;;;;;;51.10;7.65;;;;;;;;;;5036281;28;20032;-62
2023/03/30 05:25:02;;;;;;;61.97;7.15;;;;;;;;;;5033157;28;20047;-64
2023/03/30 05:27:28;;;;;;;63.70;8.35;;;;;;;;;;5032879;28;20476;-63
2023/03/30 05:29:54;;;;;;;56.50;7.80;;;;;;;;;;5032864;28;20045;-64
2023/03/30 05:32:20;;;;;;;57.83;6.22;;;;;;;;;;5037575;28;20027;-64
2023/03/30 05:34:46;;;;;;;83.75;8.80;;;;;;;;;;5049164;28;20063;-62
2023/03/30 05:37:13;;;;;;;64.72;6.75;;;;;;;;;;5040199;28;20068;-63
2023/03/30 05:39:39;;;;;;;43.85;6.90;;;;;;;;;;5047941;28;20029;-64
2023/03/30 05:42:06;;;;;;;55.00;8.57;;;;;;;;;;5052354;28;20049;-63
2023/03/30 05:44:32;;;;;;;52.17;8.13;;;;;;;;;;5052599;28;20028;-64
2023/03/30 05:46:58;;;;;;;41.72;7.05;;;;;;;;;;5052401;28;20033;-63
2023/03/30 05:49:24;;;;;;;69.45;6.75;;;;;;;;;;5051130;28;20025;-62
2023/03/30 05:51:50;;;;;;;63.92;6.72;;;;;;;;;;5044989;28;20029;-63
2023/03/30 05:54:17;;;;;;;57.22;6.90;;;;;;;;;;5035282;28;20037;-64
2023/03/30 05:56:43;;;;;;;55.45;6.30;;;;;;;;;;5042742;28;20060;-64
2023/03/30 05:59:09;;;;;;;62.97;8.05;;;;;;;;;;5052307;28;20052;-62
2023/03/30 06:01:36;;;;;;;53.25;7.22;;;;;;;;;;5035137;28;20036;-63
2023/03/30 06:04:02;;;;;;;66.85;9.13;;;;;;;;;;5032114;28;20033;-63
2023/03/30 06:06:29;;;;;;;43.10;7.60;;;;;;;;;;5032437;28;20084;-66
2023/03/30 06:08:55;;;;;;;57.33;7.20;;;;;;;;;;5048771;28;20112;-65
2023/03/30 06:11:21;;;;;;;53.38;5.97;;;;;;;;;;5050794;28;20116;-64
2023/03/30 06:13:47;;;;;;;65.53;8.32;;;;;;;;;;5051049;28;20035;-65
2023/03/30 06:16:15;;;;;;;58.17;7.22;;;;;;;;;;5051772;28;20040;-65
2023/03/30 06:18:41;;;;;;;55.42;6.78;;;;;;;;;;5050922;28;20107;-66
2023/03/30 06:21:08;;;;;;;52.85;7.45;;;;;;;;;;5051673;28;20060;-65
2023/03/30 06:23:36;;;;;;;65.55;7.18;;;;;;;;;;5037151;28;20030;-65
2023/03/30 06:26:02;;;;;;;52.17;7.47;;;;;;;;;;5037646;28;20022;-64
2023/03/30 06:28:28;;;;;;;63.92;8.00;;;;;;;;;;5031995;28;20022;-65
2023/03/30 06:30:54;;;;;;;64.40;8.60;;;;;;;;;;5032146;28;20440;-64
2023/03/30 06:33:20;;;;;;;50.67;6.68;;;;;;;;;;5033563;28;20496;-64
2023/03/30 06:35:48;;;;;;;45.78;5.78;;;;;;;;;;5051744;28;20064;-63
2023/03/30 06:38:15;;;;;;;56.65;8.07;;;;;;;;;;5049523;28;20029;-64
2023/03/30 06:40:41;;;;;;;54.53;7.50;;;;;;;;;;5051211;28;20048;-65
2023/03/30 06:43:08;;;;;;;67.15;9.93;;;;;;;;;;5051537;28;20029;-65
2023/03/30 06:45:34;;;;;;;43.45;6.03;;;;;;;;;;5051650;28;20028;-63
2023/03/30 06:48:01;;;;;;;48.80;7.07;;;;;;;;;;5034536;28;20036;-63
2023/03/30 06:50:27;;;;;;;63.47;8.88;;;;;;;;;;5031241;28;20438;-64
2023/03/30 06:52:53;;;;;;;72.63;9.23;;;;;;;;;;5031453;28;20473;-64
2023/03/30 06:55:20;;;;;;;66.00;9.00;;;;;;;;;;5031513;28;20385;-64
2023/03/30 06:57:46;;;;;;;69.93;8.43;;;;;;;;;;5031241;28;20013;-65
2023/03/30 07:00:13;;;;;;;65.50;6.88;;;;;;;;;;5036438;28;20107;-63
2023/03/30 07:02:40;;;;;;;64.80;8.70;;;;;;;;;;5030764;28;20025;-64
2023/03/30 07:05:07;;;;;;;66.88;11.45;;;;;;;;;;5046225;28;20029;-64
2023/03/30 07:07:33;;;;;;;47.70;6.88;;;;;;;;;;5050935;28;20083;-64
2023/03/30 07:09:59;;;;;;;74.80;8.25;;;;;;;;;;5045578;28;20075;-65
2023/03/30 07:12:25;;;;;;;41.20;6.50;;;;;;;;;;5031209;28;20124;-63
2023/03/30 07:14:51;;;;;;;58.92;8.00;;;;;;;;;;5031076;28;20065;-62
2023/03/30 07:17:17;;;;;;;50.80;8.07;;;;;;;;;;5031051;28;20065;-62
2023/03/30 07:19:43;;;;;;;55.42;7.68;;;;;;;;;;5033024;28;20021;-64
2023/03/30 07:22:09;;;;;;;72.78;8.05;;;;;;;;;;5032464;28;20492;-64
2023/03/30 07:24:35;;;;;;;54.42;6.90;;;;;;;;;;5045217;28;20029;-64
2023/03/30 07:27:01;;;;;;;61.50;7.90;;;;;;;;;;5053763;28;20351;-63
2023/03/30 07:29:28;;;;;;;64.40;9.55;;;;;;;;;;5051399;28;20162;-63
2023/03/30 07:31:55;;;;;;;59.10;8.05;;;;;;;;;;5054663;28;20378;-63
2023/03/30 07:34:21;;;;;;;54.10;6.78;;;;;;;;;;5052709;28;20080;-64
2023/03/30 07:36:47;;;;;;;50.53;6.57;;;;;;;;;;5054949;28;20048;-64
2023/03/30 07:39:14;;;;;;;52.22;7.50;;;;;;;;;;5053816;28;20170;-64
2023/03/30 07:41:40;;;;;;;66.88;7.93;;;;;;;;;;5054661;28;20045;-64
2023/03/30 07:44:06;;;;;;;68.25;8.10;;;;;;;;;;5054756;28;20493;-63
2023/03/30 07:46:32;;;;;;;62.42;8.93;;;;;;;;;;5054743;28;20101;-64
2023/03/30 07:48:58;;;;;;;40.60;6.40;;;;;;;;;;5054748;28;20021;-64
2023/03/30 07:51:25;;;;;;;44.63;6.57;;;;;;;;;;5054649;28;20025;-64
2023/03/30 07:53:51;;;;;;;56.88;8.95;;;;;;;;;;5054573;28;20039;-63
2023/03/30 07:56:17;;;;;;;70.75;10.32;;;;;;;;;;5053646;28;20489;-63
2023/03/30 07:58:43;;;;;;;58.95;6.60;;;;;;;;;;5054725;28;20641;-64
2023/03/30 08:01:09;;;;;;;70.95;9.15;;;;;;;;;;5054468;28;20053;-64
2023/03/30 08:03:36;;;;;;;59.35;6.32;;;;;;;;;;5054553;28;20067;-64
2023/03/30 08:06:04;;;;;;;38.38;7.05;;;;;;;;;;5054702;28;20056;-63
2023/03/30 08:08:30;;;;;;;54.17;6.90;;;;;;;;;;5054457;28;20036;-64
2023/03/30 08:10:56;;;;;;;51.53;7.10;;;;;;;;;;5054304;28;20056;-64
2023/03/30 08:13:23;;;;;;;45.03;8.77;;;;;;;;;;5053139;28;20036;-63
2023/03/30 08:15:49;;;;;;;67.65;8.52;;;;;;;;;;5053044;28;20120;-64
2023/03/30 08:18:15;;;;;;;40.13;7.63;;;;;;;;;;5054260;28;20033;-64
2023/03/30 08:20:42;;;;;;;50.47;7.05;;;;;;;;;;5054499;28;20052;-63
2023/03/30 08:23:09;;;;;;;36.78;6.20;;;;;;;;;;5054330;28;20021;-64
2023/03/30 08:25:35;;;;;;;55.30;7.43;;;;;;;;;;5054063;28;20509;-64
2023/03/30 08:28:03;;;;;;;59.78;6.70;;;;;;;;;;5054158;28;20032;-64
2023/03/30 08:30:29;;;;;;;58.72;7.78;;;;;;;;;;5052742;28;20060;-64
2023/03/30 08:32:55;;;;;;;70.32;6.47;;;;;;;;;;5054297;28;20021;-63
2023/03/30 08:35:22;;;;;;;50.28;6.35;;;;;;;;;;5054100;28;20083;-63
2023/03/30 08:37:48;;;;;;;58.88;7.30;;;;;;;;;;5054079;28;20017;-65
2023/03/30 08:40:15;;;;;;;45.05;7.22;;;;;;;;;;5053624;28;20021;-64
2023/03/30 08:42:54;;;;;;;67.43;8.85;;;;;;;;;;5053957;28;20052;-63
2023/03/30 08:45:20;;;;;;;52.95;6.95;;;;;;;;;;5053610;28;20032;-63
2023/03/30 08:47:48;;;;;;;49.10;6.95;;;;;;;;;;5052590;28;20098;-64
2023/03/30 08:50:16;;;;;;;57.05;7.65;;;;;;;;;;5053607;28;20021;-63
2023/03/30 08:52:42;;;;;;;52.65;7.40;;;;;;;;;;5053735;28;20039;-64
2023/03/30 08:55:27;;;;;;;60.30;8.40;;;;;;;;;;5053538;28;20489;-64
2023/03/30 08:57:53;;;;;;;66.40;8.27;;;;;;;;;;5053507;28;20033;-64
2023/03/30 09:00:26;;;;;;;60.10;7.60;;;;;;;;;;5053439;28;20021;-64
2023/03/30 09:02:57;;;;;;;59.05;7.20;;;;;;;;;;5052084;28;20029;-64
2023/03/30 09:05:30;;;;;;;64.70;6.67;;;;;;;;;;5052281;28;20282;-64
2023/03/30 09:08:05;;;;;;;43.40;7.00;;;;;;;;;;5053365;28;20104;-64
2023/03/30 09:10:34;;;;;;;53.92;8.60;;;;;;;;;;5053222;28;20075;-63
2023/03/30 09:13:01;;;;;;;63.67;7.47;;;;;;;;;;5053169;28;20021;-64
2023/03/30 09:15:34;;;;;;;41.08;6.00;;;;;;;;;;5053080;28;20033;-64
2023/03/30 09:18:03;;;;;;;72.72;8.88;;;;;;;;;;5053201;28;20025;-64
2023/03/30 09:20:30;;;;;;;59.83;6.22;;;;;;;;;;5052538;28;20029;-64
2023/03/30 09:23:00;;;;;;;49.70;5.93;;;;;;;;;;5049009;28;20040;-63
2023/03/30 09:25:41;;;;;;;62.38;8.30;;;;;;;;;;5051812;28;20481;-64
2023/03/30 09:28:36;;;;;;;49.47;6.38;;;;;;;;;;5050066;28;20037;-64
2023/03/30 09:31:07;;;;;;;56.30;7.93;;;;;;;;;;5052313;28;20039;-65
2023/03/30 09:33:33;;;;;;;69.55;8.02;;;;;;;;;;5052722;28;20493;-64
2023/03/30 09:36:10;;;;;;;54.97;7.13;;;;;;;;;;5052686;28;20091;-65
2023/03/30 09:38:40;;;;;;;48.35;6.35;;;;;;;;;;5052999;28;20103;-65
2023/03/30 09:41:06;;;;;;;54.83;6.07;;;;;;;;;;5052416;28;20129;-65
2023/03/30 09:43:44;;;;;;;50.15;5.72;;;;;;;;;;5051398;28;20021;-64
2023/03/30 09:46:11;;;;;;;49.70;6.55;;;;;;;;;;5052118;28;20095;-65
2023/03/30 09:48:40;;;;;;;46.38;6.15;;;;;;;;;;5052773;28;20031;-65
2023/03/30 09:51:26;;;;;;;50.58;6.93;;;;;;;;;;5050026;28;20330;-64
2023/03/30 09:54:00;;;;;;;61.50;7.05;;;;;;;;;;5049228;28;20055;-64
2023/03/30 09:56:30;;;;;;;52.35;7.78;;;;;;;;;;5052676;28;20071;-64
2023/03/30 09:58:56;;;;;;;38.35;6.13;;;;;;;;;;5052402;28;20469;-64
2023/03/30 10:01:34;;;;;;;38.95;6.25;;;;;;;;;;5049875;28;20029;-65
2023/03/30 10:04:08;;;;;;;54.83;7.35;;;;;;;;;;5052246;28;20083;-64
2023/03/30 10:06:50;;;;;;;51.20;7.65;;;;;;;;;;5052098;28;20488;-65
2023/03/30 10:09:17;;;;;;;37.00;5.68;;;;;;;;;;5052265;28;20149;-64
2023/03/30 10:11:51;;;;;;;52.33;6.53;;;;;;;;;;5051885;28;20028;-64
2023/03/30 10:14:28;;;;;;;41.50;7.68;;;;;;;;;;5052084;28;20051;-65
2023/03/30 10:16:54;;;;;;;50.90;8.25;;;;;;;;;;5050823;28;20079;-64
2023/03/30 10:19:21;;;;;;;49.97;6.35;;;;;;;;;;5052051;28;20035;-63
2023/03/30 10:21:47;;;;;;;45.08;7.45;;;;;;;;;;5051835;28;20423;-63
2023/03/30 10:24:13;;;;;;;56.42;7.18;;;;;;;;;;5050711;28;20047;-64
2023/03/30 10:26:43;;;;;;;43.13;6.35;;;;;;;;;;5051937;28;20029;-64
2023/03/30 10:29:11;;;;;;;56.40;6.75;;;;;;;;;;5051829;28;20155;-65
2023/03/30 10:31:39;;;;;;;59.00;8.20;;;;;;;;;;5050720;28;20077;-64
2023/03/30 10:34:12;;;;;;;24.20;4.22;;;;;;;;;;5051954;28;20025;-65
2023/03/30 10:36:39;;;;;;;48.70;6.68;;;;;;;;;;5051797;28;20033;-64
2023/03/30 10:39:08;;;;;;;36.33;4.65;;;;;;;;;;5051703;28;20385;-65
2023/03/30 10:41:35;;;;;;;43.75;7.97;;;;;;;;;;5051400;28;20045;-65
2023/03/30 10:44:17;;;;;;;49.90;6.00;;;;;;;;;;5051477;28;20385;-66
2023/03/30 10:46:43;;;;;;;58.03;7.60;;;;;;;;;;5051632;28;20352;-65
2023/03/30 10:49:26;;;;;;;51.65;6.05;;;;;;;;;;5050357;28;20284;-66
2023/03/30 10:52:08;;;;;;;39.72;5.93;;;;;;;;;;5051525;28;20546;-64
2023/03/30 10:54:52;;;;;;;41.67;5.38;;;;;;;;;;5048862;28;20130;-65
2023/03/30 10:57:23;;;;;;;56.17;6.80;;;;;;;;;;5049243;28;20452;-65
2023/03/30 10:59:55;;;;;;;40.77;5.27;;;;;;;;;;5051034;28;20025;-64
2023/03/30 11:02:26;;;;;;;35.33;5.55;;;;;;;;;;5051447;28;20021;-63
2023/03/30 11:05:00;;;;;;;36.45;5.68;;;;;;;;;;5051277;28;20033;-63
2023/03/30 11:07:32;;;;;;;49.00;7.70;;;;;;;;;;5049929;28;20033;-66
2023/03/30 11:10:04;;;;;;;41.13;6.18;;;;;;;;;;5050829;28;20044;-63
2023/03/30 11:12:35;;;;;;;31.67;6.38;;;;;;;;;;5049005;28;20047;-65
2023/03/30 11:15:11;;;;;;;44.92;6.72;;;;;;;;;;5051080;28;20032;-64
2023/03/30 11:18:02;;;;;;;42.78;6.70;;;;;;;;;;5051053;28;20505;-65
2023/03/30 11:20:30;;;;;;;41.58;6.13;;;;;;;;;;5050785;28;20021;-64
2023/03/30 11:22:59;;;;;;;44.63;6.95;;;;;;;;;;5051128;28;20036;-64
2023/03/30 11:25:29;;;;;;;35.72;5.90;;;;;;;;;;5051089;28;20135;-65
2023/03/30 11:27:58;;;;;;;38.80;5.57;;;;;;;;;;5049904;28;20528;-65
2023/03/30 11:30:26;;;;;;;33.47;4.88;;;;;;;;;;5051056;28;20029;-64
2023/03/30 11:32:55;;;;;;;47.38;6.70;;;;;;;;;;5050904;28;20112;-63
2023/03/30 11:35:30;;;;;;;43.03;6.57;;;;;;;;;;5051066;28;20037;-64
2023/03/30 11:37:56;;;;;;;35.22;6.95;;;;;;;;;;5049668;28;20124;-64
2023/03/30 11:40:28;;;;;;;41.80;5.97;;;;;;;;;;5050383;28;20048;-65
2023/03/30 11:42:54;;;;;;;48.55;6.85;;;;;;;;;;5051226;28;20025;-66
2023/03/30 11:45:42;;;;;;;34.10;6.78;;;;;;;;;;5049769;28;20512;-65
2023/03/30 11:48:20;;;;;;;65.22;9.18;;;;;;;;;;5049598;28;20143;-65
2023/03/30 11:50:52;;;;;;;42.58;7.97;;;;;;;;;;5050701;28;20025;-65
2023/03/30 11:53:18;;;;;;;;;;;;;;;;;;5051607;28;20409;-64
2023/03/30 11:55:51;;;;;;;40.60;5.65;;;;;;;;;;5047912;28;20373;-64
2023/03/30 11:58:17;;;;;;;42.08;6.15;;;;;;;;;;5049691;28;20119;-64
2023/03/30 12:00:43;;;;;;;35.15;5.70;;;;;;;;;;5050644;28;20049;-64
2023/03/30 12:03:09;;;;;;;38.03;6.05;;;;;;;;;;5050743;28;20478;-66
2023/03/30 12:05:38;;;;;;;45.00;6.03;;;;;;;;;;5050440;28;20504;-63
2023/03/30 12:08:15;;;;;;;37.92;5.57;;;;;;;;;;5050690;28;20033;-64
2023/03/30 12:10:42;;;;;;;31.77;4.40;;;;;;;;;;5053460;28;20045;-66
2023/03/30 12:13:15;;;;;;;34.10;4.95;;;;;;;;;;5053115;28;20041;-64
2023/03/30 12:15:45;;;;;;;31.30;4.93;;;;;;;;;;5052979;28;20039;-65
2023/03/30 12:18:13;;;;;;;34.22;4.47;;;;;;;;;;5054543;28;20075;-65
2023/03/30 12:20:43;;;;;;;37.45;6.43;;;;;;;;;;5054498;28;20032;-75
2023/03/30 12:23:09;;;;;;;40.70;5.45;;;;;;;;;;5054266;28;20355;-78
2023/03/30 12:25:50;;;;;;;61.88;7.05;;;;;;;;;;5054689;28;20017;-81
2023/03/30 12:28:19;;;;;;;55.60;6.87;;;;;;;;;;5054202;28;20108;-69
2023/03/30 12:30:47;;;;;;;56.22;7.03;;;;;;;;;;5053217;28;20017;-69
2023/03/30 12:33:19;;;;;;;56.92;8.38;;;;;;;;;;5053971;28;20477;-70
2023/03/30 12:35:45;;;;;;;51.40;7.32;;;;;;;;;;5052622;28;20132;-68
2023/03/30 12:38:15;;;;;;;61.22;6.75;;;;;;;;;;5053687;28;20104;-68
2023/03/30 12:40:45;;;;;;;55.38;8.63;;;;;;;;;;5053648;28;20048;-71
2023/03/30 12:43:25;;;;;;;50.38;7.88;;;;;;;;;;5054245;28;20248;-73
2023/03/30 12:46:01;;;;;;;50.90;7.40;;;;;;;;;;5033759;28;20490;-74
2023/03/30 12:48:42;;;;;;;58.08;8.63;;;;;;;;;;5033941;28;20055;-75
2023/03/30 12:51:27;;;;;;;44.28;6.65;;;;;;;;;;5033731;28;20028;-76
2023/03/30 12:54:00;;;;;;;38.33;6.50;;;;;;;;;;5032214;28;20413;-74
2023/03/30 12:56:30;;;;;;;32.97;5.78;;;;;;;;;;5033709;28;20096;-76
2023/03/30 12:58:59;;;;;;;33.63;6.45;;;;;;;;;;5032307;28;20060;-75
2023/03/30 13:01:31;;;;;;;58.78;6.40;;;;;;;;;;5033552;28;20512;-74
2023/03/30 13:04:01;;;;;;;40.05;6.93;;;;;;;;;;5050925;28;20087;-70
2023/03/30 13:06:27;;;;;;;39.90;6.32;;;;;;;;;;5053419;28;20087;-68
2023/03/30 13:09:22;;;;;;;51.17;6.80;;;;;;;;;;5053308;28;20025;-66
2023/03/30 13:11:51;;;;;;;42.60;6.60;;;;;;;;;;5053108;28;20056;-66
2023/03/30 13:14:40;;;;;;;48.78;6.45;;;;;;;;;;5051935;28;20128;-65
2023/03/30 13:17:09;;;;;;;44.75;6.18;;;;;;;;;;5052378;28;20095;-65
2023/03/30 13:19:39;;;;;;;60.88;7.50;;;;;;;;;;5053040;28;20107;-64
2023/03/30 13:22:11;;;;;;;47.60;5.47;;;;;;;;;;5051946;28;20013;-64
2023/03/30 13:24:41;;;;;;;33.97;4.78;;;;;;;;;;5053179;28;20025;-64
2023/03/30 13:27:20;;;;;;;21.95;4.90;;;;;;;;;;5050801;28;20029;-64
2023/03/30 13:30:09;;;;;;;35.67;6.63;;;;;;;;;;5052953;28;20028;-62
2023/03/30 13:32:38;;;;;;;44.47;6.50;;;;;;;;;;5052719;28;20025;-64
2023/03/30 13:35:24;;;;;;;40.95;6.32;;;;;;;;;;5052730;28;20477;-64
2023/03/30 13:37:50;;;;;;;50.92;6.55;;;;;;;;;;5052748;28;20033;-63
2023/03/30 13:40:35;;;;;;;42.20;5.80;;;;;;;;;;5052475;28;20032;-64
2023/03/30 13:43:07;;;;;;;45.20;6.50;;;;;;;;;;5051341;28;20041;-64
2023/03/30 13:45:37;;;;;;;44.45;5.60;;;;;;;;;;5052830;28;20017;-63
2023/03/30 13:48:23;;;;;;;51.50;7.07;;;;;;;;;;5052765;28;20036;-64
2023/03/30 13:51:00;;;;;;;38.15;5.68;;;;;;;;;;5051242;28;20377;-64
2023/03/30 13:53:28;;;;;;;44.10;5.85;;;;;;;;;;5052283;28;20029;-65
2023/03/30 13:55:55;;;;;;;47.47;7.55;;;;;;;;;;5052610;28;20060;-63
2023/03/30 13:58:32;;;;;;;38.90;5.47;;;;;;;;;;5052439;28;20013;-63
2023/03/30 14:01:04;;;;;;;34.03;4.97;;;;;;;;;;5051034;28;20033;-63
2023/03/30 14:03:43;;;;;;;48.22;6.70;;;;;;;;;;5052245;28;20067;-65
2023/03/30 14:06:13;;;;;;;42.42;5.45;;;;;;;;;;5052030;28;20036;-64
2023/03/30 14:08:39;;;;;;;44.42;6.97;;;;;;;;;;5052423;28;20024;-64
2023/03/30 14:11:14;;;;;;;47.63;5.47;;;;;;;;;;5051905;28;20021;-65
2023/03/30 14:13:40;;;;;;;44.13;6.90;;;;;;;;;;5052145;28;20545;-64
2023/03/30 14:16:07;;;;;;;37.50;6.43;;;;;;;;;;5052439;28;20079;-65
2023/03/30 14:18:33;;;;;;;46.40;7.63;;;;;;;;;;5050686;28;20028;-64
2023/03/30 14:21:00;;;;;;;49.10;7.05;;;;;;;;;;5052436;28;20029;-65
2023/03/30 14:23:37;;;;;;;44.85;6.55;;;;;;;;;;5052140;28;20115;-64
2023/03/30 14:26:06;;;;;;;41.78;7.03;;;;;;;;;;5051989;28;20036;-65
2023/03/30 14:28:36;;;;;;;38.17;5.60;;;;;;;;;;5051938;28;20430;-63
2023/03/30 14:31:04;;;;;;;50.00;7.10;;;;;;;;;;5051859;28;20456;-63
2023/03/30 14:33:34;;;;;;;45.70;6.15;;;;;;;;;;5049505;28;20021;-64
2023/03/30 14:36:01;;;;;;;48.72;6.90;;;;;;;;;;5031855;28;20136;-64
2023/03/30 14:38:36;;;;;;;52.30;7.05;;;;;;;;;;5031605;28;20030;-64
2023/03/30 14:41:05;;;;;;;49.65;6.88;;;;;;;;;;5031566;28;20045;-64
2023/03/30 14:43:31;;;;;;;52.38;6.93;;;;;;;;;;5031673;28;20477;-64